Time;durP1;ratioP1;P1;durP2;ratioP2;P2;SDS_P1;SDS_P2;PMS_P1;PMS_P2;Temp;Humidity;BMP_temperature;BMP_pressure;BME280_temperature;BME280_humidity;BME280_pressure;Samples;Min_cycle;Max_cycle;Signal;HPM_P1;HPM_P2
2020/12/06 00:01:32;;;;;;;;;;;;;;;;;;5024049;28;19925;-66
2020/12/06 00:03:58;;;;;;;;;;;;;;;;;;5036363;28;19925;-65
2020/12/06 00:06:25;;;;;;;;;;;;;;;;;;5026131;28;19926;-65
2020/12/06 00:08:51;;;;;;;;;;;;;;;;;;5016476;28;19930;-63
2020/12/06 00:11:18;;;;;;;;;;;;;;;;;;5034690;28;19992;-66
2020/12/06 00:13:44;;;;;;;;;;;;;;;;;;5036238;28;19925;-64
2020/12/06 00:16:11;;;;;;;;;;;;;;;;;;5035009;28;19929;-62
2020/12/06 00:18:37;;;;;;;;;;;;;;;;;;5032813;28;20010;-62
2020/12/06 00:21:04;;;;;;;;;;;;;;;;;;5029627;28;19925;-67
2020/12/06 00:23:30;;;;;;;;;;;;;;;;;;5036112;28;19968;-64
2020/12/06 00:25:57;;;;;;;;;;;;;;;;;;5035683;28;19968;-64
2020/12/06 00:28:24;;;;;;;;;;;;;;;;;;5035524;28;19925;-65
2020/12/06 00:30:50;;;;;;;;;;;;;;;;;;5033911;28;19971;-64
2020/12/06 00:33:17;;;;;;;;;;;;;;;;;;5038312;28;19929;-65
2020/12/06 00:35:43;;;;;;;;;;;;;;;;;;5041777;28;19925;-67
2020/12/06 00:38:10;;;;;;;;;;;;;;;;;;5035321;28;19925;-65
2020/12/06 00:40:36;;;;;;;;;;;;;;;;;;5027149;28;19972;-63
2020/12/06 00:43:03;;;;;;;;;;;;;;;;;;5020093;28;19987;-68
2020/12/06 00:45:29;;;;;;;;;;;;;;;;;;5029522;28;20208;-64
2020/12/06 00:47:56;;;;;;;;;;;;;;;;;;5036900;28;19925;-67
2020/12/06 00:50:22;;;;;;;;;;;;;;;;;;5037990;28;20309;-66
2020/12/06 00:52:49;;;;;;;;;;;;;;;;;;5027763;28;20433;-67
2020/12/06 00:55:15;;;;;;;;;;;;;;;;;;5033992;28;19972;-68
2020/12/06 00:57:42;;;;;;;;;;;;;;;;;;5025194;28;19960;-65
2020/12/06 01:00:08;;;;;;;;;;;;;;;;;;5034978;28;19972;-65
2020/12/06 01:02:35;;;;;;;;;;;;;;;;;;5030291;28;20100;-65
2020/12/06 01:05:01;;;;;;;;;;;;;;;;;;5026236;28;19956;-67
2020/12/06 01:07:28;;;;;;;;;;;;;;;;;;5033772;28;19980;-64
2020/12/06 01:09:54;;;;;;;;;;;;;;;;;;5022179;28;19933;-65
2020/12/06 01:12:21;;;;;;;;;;;;;;;;;;5024909;28;19967;-65
2020/12/06 01:14:47;;;;;;;;;;;;;;;;;;5034239;28;19925;-65
2020/12/06 01:17:14;;;;;;;;;;;;;;;;;;5028557;28;20357;-66
2020/12/06 01:19:40;;;;;;;;;;;;;;;;;;5033461;28;20435;-65
2020/12/06 01:22:07;;;;;;;;;;;;;;;;;;5034110;28;19961;-66
2020/12/06 01:24:34;;;;;;;;;;;;;;;;;;5033112;28;19956;-63
2020/12/06 01:27:00;;;;;;;;;;;;;;;;;;5032237;28;19933;-64
2020/12/06 01:29:27;;;;;;;;;;;;;;;;;;5033146;28;19987;-64
2020/12/06 01:31:54;;;;;;;;;;;4.10;99.90;;;;;;5033189;28;19964;-63
2020/12/06 01:34:20;;;;;;;;;;;4.10;99.90;;;;;;5018628;28;19968;-64
2020/12/06 01:36:49;;;;;;;;;;;4.00;99.90;;;;;;5033462;28;19925;-67
2020/12/06 01:39:16;;;;;;;;;;;4.00;99.90;;;;;;5030951;28;20262;-65
2020/12/06 01:41:42;;;;;;;;;;;4.00;99.90;;;;;;5021353;28;19929;-67
2020/12/06 01:44:08;;;;;;;;;;;3.90;99.90;;;;;;5033722;28;19960;-66
2020/12/06 01:46:36;;;;;;;;;;;3.80;99.90;;;;;;5031545;28;19964;-66
2020/12/06 01:49:04;;;;;;;;;;;3.80;99.90;;;;;;5025652;28;20333;-66
2020/12/06 01:51:30;;;;;;;;;;;3.90;99.90;;;;;;5021822;28;19965;-66
2020/12/06 01:53:57;;;;;;;;;;;3.90;99.90;;;;;;5019864;28;20456;-65
2020/12/06 01:56:23;;;;;;;;;;;4.00;99.90;;;;;;5019473;28;19926;-64
2020/12/06 01:58:49;;;;;;;;;;;4.00;99.90;;;;;;5012722;28;19961;-64
2020/12/06 02:01:15;;;;;;;;;;;3.90;99.90;;;;;;5026229;28;19929;-65
2020/12/06 02:03:41;;;;;;;;;;;3.80;99.90;;;;;;5033006;28;20028;-64
2020/12/06 02:06:09;;;;;;;;;;;3.90;99.90;;;;;;5033265;28;19957;-64
2020/12/06 02:08:35;;;;;;;;;;;3.80;99.90;;;;;;5022086;28;19984;-67
2020/12/06 02:11:01;;;;;;;;;;;3.80;99.90;;;;;;5021923;28;20373;-67
2020/12/06 02:13:27;;;;;;;;;;;3.80;99.90;;;;;;5026048;28;19968;-64
2020/12/06 02:15:54;;;;;;;;;;;3.90;99.90;;;;;;5030974;28;19976;-63
2020/12/06 02:18:21;;;;;;;;;;;4.00;99.90;;;;;;5029549;28;19956;-65
2020/12/06 02:20:48;;;;;;;;;;;4.00;99.90;;;;;;5032690;28;20007;-65
2020/12/06 02:23:14;;;;;;;;;;;4.00;99.90;;;;;;5013264;28;20436;-64
2020/12/06 02:25:41;;;;;;;;;;;4.10;99.90;;;;;;5025658;28;19976;-64
2020/12/06 02:28:07;;;;;;;;;;;4.10;99.90;;;;;;5032099;28;19925;-63
2020/12/06 02:30:34;;;;;;;;;;;4.20;99.90;;;;;;5021504;28;19964;-64
2020/12/06 02:33:01;;;;;;;;;;;4.20;99.90;;;;;;5031316;28;19976;-64
2020/12/06 02:35:27;;;;;;;;;;;4.30;99.90;;;;;;5020050;28;19925;-63
2020/12/06 02:37:54;;;;;;;;;;;4.20;99.90;;;;;;5021673;28;19979;-68
2020/12/06 02:40:20;;;;;;;;;;;4.20;99.90;;;;;;5033509;28;19989;-64
2020/12/06 02:42:47;;;;;;;;;;;4.20;99.90;;;;;;5032553;28;20020;-64
2020/12/06 02:45:13;;;;;;;;;;;4.20;99.90;;;;;;5031591;28;19976;-63
2020/12/06 02:47:39;;;;;;;;;;;4.10;99.90;;;;;;5022527;28;20012;-64
2020/12/06 02:50:06;;;;;;;;;;;4.00;99.90;;;;;;5028080;28;20007;-65
2020/12/06 02:52:32;;;;;;;;;;;4.00;99.90;;;;;;5031684;28;20002;-67
2020/12/06 02:54:59;;;;;;;;;;;3.90;99.90;;;;;;5031846;28;20404;-66
2020/12/06 02:57:25;;;;;;;;;;;3.80;99.90;;;;;;5029523;28;20389;-65
2020/12/06 02:59:51;;;;;;;;;;;3.70;99.90;;;;;;5032156;28;20411;-65
2020/12/06 03:02:17;;;;;;;;;;;3.80;99.90;;;;;;5031201;28;19968;-64
2020/12/06 03:04:44;;;;;;;;;;;3.90;99.90;;;;;;5031699;28;20009;-65
2020/12/06 03:07:10;;;;;;;;;;;4.00;99.90;;;;;;5020112;28;19973;-64
2020/12/06 03:09:36;;;;;;;;;;;3.80;99.90;;;;;;5016753;28;19980;-64
2020/12/06 03:12:03;;;;;;;;;;;3.80;99.90;;;;;;5039102;28;20365;-64
2020/12/06 03:14:29;;;;;;;;;;;3.90;99.90;;;;;;5038332;28;20309;-65
2020/12/06 03:16:55;;;;;;;;;;;3.90;99.90;;;;;;5038444;28;20339;-65
2020/12/06 03:19:22;;;;;;;;;;;4.00;99.90;;;;;;5038711;28;20039;-65
2020/12/06 03:21:48;;;;;;;;;;;4.10;99.90;;;;;;5038982;28;20341;-65
2020/12/06 03:24:14;;;;;;;;;;;4.10;99.90;;;;;;5038621;28;19979;-65
2020/12/06 03:26:40;;;;;;;;;;;4.00;99.90;;;;;;5038631;28;19969;-65
2020/12/06 03:29:07;;;;;;;;;;;3.90;99.90;;;;;;5035905;28;19983;-64
2020/12/06 03:31:33;;;;;;;;;;;4.00;99.90;;;;;;5037499;28;19929;-65
2020/12/06 03:34:00;;;;;;;;;;;4.00;99.90;;;;;;5037948;28;20012;-67
2020/12/06 03:36:26;;;;;;;;;;;4.00;99.90;;;;;;5038608;28;19971;-64
2020/12/06 03:38:52;;;;;;;;;;;4.10;99.90;;;;;;5038009;28;20012;-64
2020/12/06 03:41:18;;;;;;;;;;;4.20;99.90;;;;;;5038752;28;20003;-63
2020/12/06 03:43:44;;;;;;;;;;;4.20;99.90;;;;;;5038082;28;19965;-64
2020/12/06 03:46:11;;;;;;;;;;;4.20;99.90;;;;;;5020722;28;19969;-65
2020/12/06 03:48:37;;;;;;;;;;;4.30;99.90;;;;;;5031516;28;19979;-66
2020/12/06 03:51:04;;;;;;;;;;;4.30;99.90;;;;;;5038995;28;19925;-64
2020/12/06 03:53:30;;;;;;;;;;;4.20;99.90;;;;;;5039003;28;20366;-64
2020/12/06 03:55:56;;;;;;;;;;;4.20;99.90;;;;;;5038659;28;19961;-65
2020/12/06 03:58:22;;;;;;;;;;;4.20;99.90;;;;;;5035443;28;19976;-63
2020/12/06 04:00:49;;;;;;;;;;;4.20;99.90;;;;;;5018942;28;19976;-64
2020/12/06 04:03:16;;;;;;;;;;;4.20;99.90;;;;;;5033732;28;20367;-64
2020/12/06 04:05:42;;;;;;;;;;;4.20;99.90;;;;;;5035784;28;20408;-64
2020/12/06 04:08:08;;;;;;;;;;;4.20;99.90;;;;;;5021735;28;19975;-66
2020/12/06 04:10:34;;;;;;;;;;;4.20;99.90;;;;;;5038130;28;19994;-66
2020/12/06 04:13:00;;;;;;;;;;;4.30;99.90;;;;;;5038612;28;19971;-65
2020/12/06 04:15:26;;;;;;;;;;;4.30;99.90;;;;;;5038374;28;20421;-64
2020/12/06 04:17:53;;;;;;;;;;;4.20;99.90;;;;;;5035901;28;20012;-64
2020/12/06 04:20:20;;;;;;;;;;;4.20;99.90;;;;;;5033416;28;20270;-64
2020/12/06 04:22:46;;;;;;;;;;;4.20;99.90;;;;;;5024994;28;19980;-64
2020/12/06 04:25:12;;;;;;;;;;;4.20;99.90;;;;;;5015519;28;19976;-64
2020/12/06 04:27:38;;;;;;;;;;;4.20;99.90;;;;;;5031007;28;20024;-63
2020/12/06 04:30:04;;;;;;;;;;;4.20;99.90;;;;;;5034752;28;20176;-64
2020/12/06 04:32:31;;;;;;;;;;;4.30;99.90;;;;;;5023744;28;19961;-66
2020/12/06 04:34:58;;;;;;;;;;;4.40;99.90;;;;;;5029945;28;20344;-67
2020/12/06 04:37:25;;;;;;;;;;;4.40;99.90;;;;;;5034579;28;19980;-64
2020/12/06 04:39:51;;;;;;;;;;;4.40;99.90;;;;;;5030292;28;19925;-63
2020/12/06 04:42:18;;;;;;;;;;;4.50;99.90;;;;;;5021592;28;19964;-65
2020/12/06 04:44:44;;;;;;;;;;;4.50;99.90;;;;;;5033835;28;19979;-63
2020/12/06 04:47:14;;;;;;;;;;;4.50;99.90;;;;;;5048632;23;19925;-66
2020/12/06 04:49:44;;;;;;;;;;;4.50;99.90;;;;;;4995068;28;19934;-66
2020/12/06 04:52:14;;;;;;;;;;;4.60;99.90;;;;;;4994521;28;19964;-63
2020/12/06 04:54:42;;;;;;;;;;;4.40;99.90;;;;;;4993662;28;20009;-63
2020/12/06 04:57:09;;;;;;;;;;;4.30;99.90;;;;;;4995757;28;20289;-63
2020/12/06 04:59:38;;;;;;;;;;;4.40;99.90;;;;;;5012445;28;20012;-62
2020/12/06 05:02:08;;;;;;;;;;;4.50;99.90;;;;;;5010925;28;19929;-64
2020/12/06 05:04:40;;;;;;;;;;;4.60;99.90;;;;;;5008771;28;19989;-65
2020/12/06 05:07:06;;;;;;;;;;;4.50;99.90;;;;;;5006596;28;20012;-64
2020/12/06 05:09:34;;;;;;;;;;;4.40;99.90;;;;;;5002356;28;20346;-64
2020/12/06 05:12:02;;;;;;;;;;;4.50;99.90;;;;;;5010098;28;20313;-64
2020/12/06 05:14:28;;;;;;;;;;;4.50;99.90;;;;;;5012674;28;20334;-63
2020/12/06 05:16:55;;;;;;;;;;;4.50;99.90;;;;;;5009103;28;20009;-64
2020/12/06 05:19:23;;;;;;;;;;;4.40;99.90;;;;;;5001351;28;19968;-65
2020/12/06 05:21:49;;;;;;;;;;;4.30;99.90;;;;;;5013357;28;20008;-65
2020/12/06 05:24:16;;;;;;;;;;;4.30;99.90;;;;;;5005790;28;20041;-63
2020/12/06 05:26:42;;;;;;;;;;;4.20;99.90;;;;;;5003884;28;20048;-65
2020/12/06 05:29:09;;;;;;;;;;;4.30;99.90;;;;;;4998917;28;19972;-63
2020/12/06 05:31:35;;;;;;;;;;;4.40;99.90;;;;;;4999745;28;20642;-67
2020/12/06 05:34:01;;;;;;;;;;;4.40;99.90;;;;;;5002212;28;20012;-63
2020/12/06 05:36:27;;;;;;;;;;;4.40;99.90;;;;;;4996612;28;19969;-64
2020/12/06 05:38:53;;;;;;;;;;;4.50;99.90;;;;;;5014128;28;20016;-63
2020/12/06 05:41:20;;;;;;;;;;;4.60;99.90;;;;;;5011979;28;19977;-63
2020/12/06 05:43:46;;;;;;;;;;;4.70;99.90;;;;;;5008653;28;19965;-64
2020/12/06 05:46:14;;;;;;;;;;;4.70;99.90;;;;;;5012726;28;20020;-62
2020/12/06 05:48:40;;;;;;;;;;;4.70;99.90;;;;;;4998026;28;20004;-63
2020/12/06 05:51:07;;;;;;;;;;;4.60;99.90;;;;;;5001300;28;20016;-62
2020/12/06 05:53:34;;;;;;;;;;;4.50;99.90;;;;;;5007999;28;19980;-64
2020/12/06 05:56:04;;;;;;;;;;;4.40;99.90;;;;;;5000904;28;19972;-62
2020/12/06 05:58:31;;;;;;;;;;;4.20;99.90;;;;;;4999857;28;19948;-63
2020/12/06 06:00:58;;;;;;;;;;;4.20;99.90;;;;;;5005320;28;20370;-65
2020/12/06 06:03:28;;;;;;;;;;;4.10;99.90;;;;;;5011206;28;20568;-63
2020/12/06 06:05:55;;;;;;;;;;;4.10;99.90;;;;;;5004868;28;19949;-63
2020/12/06 06:08:22;;;;;;;;;;;4.00;99.90;;;;;;4994486;28;20465;-64
2020/12/06 06:10:54;;;;;;;;;;;4.00;99.90;;;;;;5011878;28;20020;-63
2020/12/06 06:13:22;;;;;;;;;;;4.00;99.90;;;;;;5010444;28;20457;-64
2020/12/06 06:15:48;;;;;;;;;;;4.00;99.90;;;;;;4994398;28;19972;-65
2020/12/06 06:18:15;;;;;;;;;;;4.10;99.90;;;;;;5008154;28;20020;-65
2020/12/06 06:20:42;;;;;;;;;;;4.20;99.90;;;;;;5002834;28;19973;-65
2020/12/06 06:23:09;;;;;;;;;;;4.20;99.90;;;;;;5002555;28;19977;-65
2020/12/06 06:25:36;;;;;;;;;;;4.30;99.90;;;;;;5012860;28;19934;-65
2020/12/06 06:28:03;;;;;;;;;;;4.20;99.90;;;;;;5010283;28;19999;-64
2020/12/06 06:30:30;;;;;;;;;;;4.20;99.90;;;;;;5002931;28;19979;-65
2020/12/06 06:32:56;;;;;;;;;;;4.20;99.90;;;;;;5001408;28;19930;-63
2020/12/06 06:35:22;;;;;;;;;;;4.00;99.90;;;;;;5006994;28;19984;-65
2020/12/06 06:37:49;;;;;;;;;;;4.10;99.90;;;;;;5002605;28;20040;-66
2020/12/06 06:40:15;;;;;;;;;;;4.20;99.90;;;;;;5011341;28;20373;-65
2020/12/06 06:42:42;;;;;;;;;;;4.20;99.90;;;;;;5010864;28;19984;-65
2020/12/06 06:45:09;;;;;;;;;;;4.30;99.90;;;;;;5010279;28;19929;-68
2020/12/06 06:47:36;;;;;;;;;;;4.30;99.90;;;;;;5007774;28;20008;-64
2020/12/06 06:50:03;;;;;;;;;;;4.20;99.90;;;;;;5005831;28;19925;-64
2020/12/06 06:52:29;;;;;;;;;;;4.20;99.90;;;;;;5008774;28;19991;-64
2020/12/06 06:54:57;;;;;;;;;;;4.30;99.90;;;;;;5008159;28;19972;-66
2020/12/06 06:57:24;;;;;;;;;;;4.30;99.90;;;;;;5003853;28;20282;-64
2020/12/06 06:59:52;;;;;;;;;;;4.30;99.90;;;;;;5008465;28;19973;-64
2020/12/06 07:02:25;;;;;;;;;;;4.30;99.90;;;;;;5002000;28;20008;-65
2020/12/06 07:04:51;;;;;;;;;;;4.20;99.90;;;;;;5011952;28;19930;-66
2020/12/06 07:07:35;;;;;;;;;;;4.30;99.90;;;;;;5003472;28;19988;-63
2020/12/06 07:10:02;;;;;;;;;;;4.40;99.90;;;;;;5009749;28;20004;-63
2020/12/06 07:12:35;;;;;;;;;;;4.30;99.90;;;;;;5008584;28;20372;-62
2020/12/06 07:15:01;;;;;;;;;;;4.30;99.90;;;;;;5007240;28;20016;-65
2020/12/06 07:17:28;;;;;;;;;;;4.30;99.90;;;;;;5010095;28;19925;-66
2020/12/06 07:19:54;;;;;;;;;;;4.30;99.90;;;;;;4995648;28;19957;-66
2020/12/06 07:22:20;;;;;;;;;;;4.40;99.90;;;;;;4999887;28;20009;-63
2020/12/06 07:24:46;;;;;;;;;;;4.40;99.90;;;;;;5002923;28;19980;-66
2020/12/06 07:27:13;;;;;;;;;;;4.40;99.90;;;;;;5001582;28;19980;-63
2020/12/06 07:29:41;;;;;;;;;;;4.30;99.90;;;;;;5012056;28;19972;-63
2020/12/06 07:32:08;;;;;;;;;;;4.20;99.90;;;;;;5011027;28;19961;-66
2020/12/06 07:34:35;;;;;;;;;;;4.30;99.90;;;;;;4999550;28;19976;-65
2020/12/06 07:37:01;;;;;;;;;;;4.30;99.90;;;;;;5007817;28;20353;-63
2020/12/06 07:39:27;;;;;;;;;;;4.30;99.90;;;;;;5001131;28;19929;-64
2020/12/06 07:41:53;;;;;;;;;;;4.30;99.90;;;;;;5000294;28;19926;-64
2020/12/06 07:44:20;;;;;;;;;;;4.30;99.90;;;;;;5009767;28;19975;-66
2020/12/06 07:46:58;;;;;;;;;;;4.20;99.90;;;;;;4998516;28;19926;-65
2020/12/06 07:49:24;;;;;;;;;;;4.10;99.90;;;;;;4992009;28;20005;-64
2020/12/06 07:51:50;;;;;;;;;;;4.10;99.90;;;;;;4994807;28;19975;-64
2020/12/06 07:54:17;;;;;;;;;;;4.10;99.90;;;;;;5002971;28;19965;-65
2020/12/06 07:56:43;;;;;;;;;;;4.10;99.90;;;;;;5001827;28;19957;-64
2020/12/06 07:59:16;;;;;;;;;;;4.00;99.90;;;;;;5014377;28;19976;-66
2020/12/06 08:01:43;;;;;;;;;;;4.00;99.90;;;;;;5010072;28;19973;-66
2020/12/06 08:04:11;;;;;;;;;;;4.00;99.90;;;;;;4995638;28;19980;-65
2020/12/06 08:06:39;;;;;;;;;;;4.00;99.90;;;;;;5004723;28;20274;-65
2020/12/06 08:09:07;;;;;;;;;;;4.00;99.90;;;;;;5013201;28;20464;-64
2020/12/06 08:11:35;;;;;;;;;;;3.90;99.90;;;;;;5012719;28;20348;-63
2020/12/06 08:14:02;;;;;;;;;;;4.00;99.90;;;;;;5014070;28;19937;-63
2020/12/06 08:16:28;;;;;;;;;;;3.90;99.90;;;;;;5011976;28;19969;-64
2020/12/06 08:18:59;;;;;;;;;;;3.90;99.90;;;;;;5014200;28;19925;-63
2020/12/06 08:21:25;;;;;;;;;;;3.90;99.90;;;;;;5010427;28;19930;-65
2020/12/06 08:23:51;;;;;;;;;;;4.00;99.90;;;;;;5003493;28;19956;-64
2020/12/06 08:26:17;;;;;;;;;;;4.00;99.90;;;;;;5005464;28;19972;-65
2020/12/06 08:28:49;;;;;;;;;;;4.10;99.90;;;;;;4994909;28;20354;-65
2020/12/06 08:31:19;;;;;;;;;;;4.10;99.90;;;;;;5007637;28;19929;-63
2020/12/06 08:33:45;;;;;;;;;;;4.10;99.90;;;;;;5011870;28;19929;-62
2020/12/06 08:36:22;;;;;;;;;;;4.00;99.90;;;;;;5012112;28;20345;-65
2020/12/06 08:38:48;;;;;;;;;;;3.90;99.90;;;;;;5007587;28;20383;-62
2020/12/06 08:41:14;;;;;;;;;;;3.90;99.90;;;;;;5006958;28;20368;-63
2020/12/06 08:43:43;;;;;;;;;;;4.00;99.90;;;;;;5000476;28;19995;-65
2020/12/06 08:46:10;;;;;;;;;;;4.20;99.90;;;;;;5011797;28;19926;-67
2020/12/06 08:48:36;;;;;;;;;;;4.30;99.90;;;;;;5000756;28;20366;-64
2020/12/06 08:51:03;;;;;;;;;;;4.40;99.90;;;;;;5002121;28;19961;-63
2020/12/06 08:53:43;;;;;;;;;;;4.60;99.90;;;;;;5014156;28;20377;-64
2020/12/06 08:56:24;;;;;;;;;;;4.70;99.90;;;;;;5001377;28;20117;-62
2020/12/06 08:58:51;;;;;;;;;;;4.90;99.90;;;;;;5009258;28;20344;-65
2020/12/06 09:01:17;;;;;;;;;;;5.10;99.90;;;;;;5000311;28;19961;-63
2020/12/06 09:03:43;;;;;;;;;;;5.30;99.90;;;;;;5012732;28;19971;-63
2020/12/06 09:06:14;;;;;;;;;;;5.40;99.90;;;;;;5012101;28;19989;-64
2020/12/06 09:08:40;;;;;;;;;;;5.40;99.90;;;;;;5008150;28;19964;-62
2020/12/06 09:11:12;;;;;;;;;;;5.50;99.90;;;;;;5007537;28;20024;-63
2020/12/06 09:13:38;;;;;;;;;;;5.80;99.90;;;;;;5011675;28;20263;-61
2020/12/06 09:16:04;;;;;;;;;;;6.10;99.90;;;;;;4997901;28;19949;-64
2020/12/06 09:18:30;;;;;;;;;;;6.40;99.90;;;;;;5008391;28;20064;-65
2020/12/06 09:20:57;;;;;;;;;;;6.70;99.90;;;;;;5004051;28;20008;-64
2020/12/06 09:23:23;;;;;;;;;;;7.00;99.90;;;;;;5011763;28;20012;-63
2020/12/06 09:25:49;;;;;;;;;;;7.30;99.90;;;;;;5011349;28;20348;-65
2020/12/06 09:28:16;;;;;;;;;;;7.50;99.90;;;;;;5004595;28;20013;-64
2020/12/06 09:30:43;;;;;;;;;;;7.80;99.90;;;;;;5001715;28;19975;-59
2020/12/06 09:33:09;;;;;;;;;;;8.30;99.90;;;;;;5011027;28;20298;-64
2020/12/06 09:35:35;;;;;;;;;;;8.80;99.90;;;;;;5011111;28;19957;-64
2020/12/06 09:38:02;;;;;;;;;;;9.70;99.90;;;;;;5006310;28;19926;-64
2020/12/06 09:40:28;;;;;;;;;;;;;;;;;;5010165;28;19971;-62
2020/12/06 09:42:54;;;;;;;;;;;11.50;99.90;;;;;;5006470;28;20632;-61
2020/12/06 09:45:21;;;;;;;;;;;12.00;99.90;;;;;;4996547;28;19925;-64
2020/12/06 09:47:47;;;;;;;;;;;11.90;99.90;;;;;;4999411;28;20022;-65
2020/12/06 09:50:14;;;;;;;;;;;11.50;99.90;;;;;;5009701;28;20016;-64
2020/12/06 09:52:40;;;;;;;;;;;11.20;99.90;;;;;;5009233;28;19976;-65
2020/12/06 09:55:06;;;;;;;;;;;10.20;99.90;;;;;;5011223;28;19925;-63
2020/12/06 09:57:32;;;;;;;;;;;10.10;99.90;;;;;;5011838;28;20221;-64
2020/12/06 09:59:58;;;;;;;;;;;10.10;99.90;;;;;;5009751;28;20374;-63
2020/12/06 10:02:25;;;;;;;;;;;10.00;99.90;;;;;;4994371;28;19930;-64
2020/12/06 10:04:52;;;;;;;;;;;10.00;99.90;;;;;;5001998;28;20021;-66
2020/12/06 10:07:21;;;;;;;;;;;9.80;99.90;;;;;;5001726;28;20353;-64
2020/12/06 10:09:47;;;;;;;;;;;9.60;99.90;;;;;;5003740;28;19926;-62
2020/12/06 10:12:13;;;;;;;;;;;9.50;99.90;;;;;;5008712;28;20442;-63
2020/12/06 10:14:39;;;;;;;;;;;9.50;99.90;;;;;;5008601;28;20012;-64
2020/12/06 10:17:05;;;;;;;;;;;9.60;99.90;;;;;;5011526;28;19925;-65
2020/12/06 10:19:32;;;;;;;;;;;9.80;99.90;;;;;;5000809;28;19925;-62
2020/12/06 10:21:59;;;;;;;;;;;9.60;99.90;;;;;;5002859;28;19972;-64
2020/12/06 10:24:25;;;;;;;;;;;9.30;99.90;;;;;;5011639;28;20391;-64
2020/12/06 10:26:51;;;;;;;;;;;8.90;99.90;;;;;;5007900;28;19933;-65
2020/12/06 10:29:17;;;;;;;;;;;8.70;99.90;;;;;;5010999;28;20016;-61
2020/12/06 10:31:44;;;;;;;;;;;8.30;99.90;;;;;;5009768;28;19976;-61
2020/12/06 10:34:10;;;;;;;;;;;8.30;99.90;;;;;;5011675;28;19929;-65
2020/12/06 10:36:37;;;;;;;;;;;8.30;99.90;;;;;;5010123;28;19945;-65
2020/12/06 10:39:03;;;;;;;;;;;8.30;99.90;;;;;;5004317;28;20012;-65
2020/12/06 10:41:29;;;;;;;;;;;8.30;99.90;;;;;;5000888;28;20356;-65
2020/12/06 10:43:56;;;;;;;;;;;8.30;99.90;;;;;;5000651;28;19968;-64
2020/12/06 10:46:24;;;;;;;;;;;8.10;99.90;;;;;;4992880;28;19968;-63
2020/12/06 10:48:51;;;;;;;;;;;7.90;99.90;;;;;;5008444;22;20024;-63
2020/12/06 10:51:17;;;;;;;;;;;8.00;99.90;;;;;;5000094;28;20026;-64
2020/12/06 10:53:44;;;;;;;;;;;7.80;99.90;;;;;;4994267;28;20061;-65
2020/12/06 10:56:10;;;;;;;;;;;7.90;99.90;;;;;;5007104;28;19972;-64
2020/12/06 10:58:36;;;;;;;;;;;7.80;99.90;;;;;;4999883;28;20020;-64
2020/12/06 11:01:03;;;;;;;;;;;7.40;99.90;;;;;;4977895;28;20017;-64
2020/12/06 11:03:29;;;;;;;;;;;7.30;99.90;;;;;;4977027;28;19930;-65
2020/12/06 11:05:56;;;;;;;;;;;7.40;99.90;;;;;;4979420;28;19981;-64
2020/12/06 11:08:24;;;;;;;;;;;7.50;99.90;;;;;;4985453;28;20373;-63
2020/12/06 11:10:51;;;;;;;;;;;7.40;99.90;;;;;;4987930;28;19980;-62
2020/12/06 11:13:18;;;;;;;;;;;7.30;99.90;;;;;;4986589;28;19972;-63
2020/12/06 11:15:44;;;;;;;;;;;7.20;99.90;;;;;;4992611;28;19969;-63
2020/12/06 11:18:10;;;;;;;;;;;7.10;99.90;;;;;;4984356;28;20022;-67
2020/12/06 11:20:36;;;;;;;;;;;6.70;99.90;;;;;;4978160;28;20383;-63
2020/12/06 11:23:03;;;;;;;;;;;6.80;99.90;;;;;;4974405;28;19981;-63
2020/12/06 11:25:29;;;;;;;;;;;6.80;99.90;;;;;;4992598;28;19972;-63
2020/12/06 11:27:56;;;;;;;;;;;6.80;99.90;;;;;;4986292;28;19925;-63
2020/12/06 11:30:22;;;;;;;;;;;6.70;99.90;;;;;;4991879;28;19995;-63
2020/12/06 11:32:48;;;;;;;;;;;6.70;99.90;;;;;;4995636;28;20013;-65
2020/12/06 11:35:14;;;;;;;;;;;6.70;99.90;;;;;;4993595;28;20378;-64
2020/12/06 11:37:41;;;;;;;;;;;6.60;99.90;;;;;;4980200;28;20013;-63
2020/12/06 11:40:07;;;;;;;;;;;6.50;99.90;;;;;;4995790;28;19965;-63
2020/12/06 11:42:33;;;;;;;;;;;6.40;99.90;;;;;;4978709;28;20371;-64
2020/12/06 11:45:00;;;;;;;;;;;6.40;99.90;;;;;;4985046;28;20016;-63
2020/12/06 11:47:27;;;;;;;;;;;6.40;99.90;;;;;;4982011;28;20445;-64
2020/12/06 11:49:53;;;;;;;;;;;6.40;99.90;;;;;;4991789;28;20020;-64
2020/12/06 11:52:19;;;;;;;;;;;6.20;99.90;;;;;;4985807;28;19926;-66
2020/12/06 11:54:45;;;;;;;;;;;6.10;99.90;;;;;;4984479;28;20362;-64
2020/12/06 11:57:12;;;;;;;;;;;6.10;99.90;;;;;;4985602;28;19966;-64
2020/12/06 11:59:38;;;;;;;;;;;6.10;99.90;;;;;;4991932;28;19996;-63
2020/12/06 12:02:05;;;;;;;;;;;6.00;99.90;;;;;;4985808;28;20004;-63
2020/12/06 12:04:31;;;;;;;;;;;5.90;99.90;;;;;;4984718;28;19980;-63
2020/12/06 12:06:57;;;;;;;;;;;5.80;99.90;;;;;;4990202;28;19964;-65
2020/12/06 12:09:23;;;;;;;;;;;5.80;99.90;;;;;;4991011;28;20365;-63
2020/12/06 12:11:50;;;;;;;;;;;5.70;99.90;;;;;;4978074;28;19934;-64
2020/12/06 12:14:16;;;;;;;;;;;5.80;99.90;;;;;;4995909;28;19926;-63
2020/12/06 12:16:43;;;;;;;;;;;5.90;99.90;;;;;;4989133;28;20020;-62
2020/12/06 12:19:10;;;;;;;;;;;5.70;99.90;;;;;;4986398;28;19952;-63
2020/12/06 12:21:36;;;;;;;;;;;5.70;99.90;;;;;;4977832;28;19982;-61
2020/12/06 12:24:02;;;;;;;;;;;5.60;99.90;;;;;;4976504;28;19973;-60
2020/12/06 12:26:29;;;;;;;;;;;5.60;99.90;;;;;;4983213;28;19987;-63
2020/12/06 12:28:55;;;;;;;;;;;5.60;99.90;;;;;;4980879;28;20369;-62
2020/12/06 12:31:21;;;;;;;;;;;5.50;99.90;;;;;;4982278;28;19979;-64
2020/12/06 12:33:47;;;;;;;;;;;5.50;99.90;;;;;;4986203;28;20016;-63
2020/12/06 12:36:14;;;;;;;;;;;5.60;99.90;;;;;;4983533;28;20020;-62
2020/12/06 12:38:41;;;;;;;;;;;5.60;99.90;;;;;;4989164;28;19930;-62
2020/12/06 12:41:07;;;;;;;;;;;5.30;99.90;;;;;;4986603;28;19925;-64
2020/12/06 12:43:33;;;;;;;;;;;5.40;99.90;;;;;;4990013;28;19972;-64
2020/12/06 12:45:59;;;;;;;;;;;5.30;99.90;;;;;;4998582;28;19926;-62
2020/12/06 12:48:25;;;;;;;;;;;5.40;99.90;;;;;;5006977;28;20003;-62
2020/12/06 12:50:52;;;;;;;;;;;5.40;99.90;;;;;;4993251;28;20565;-63
2020/12/06 12:53:19;;;;;;;;;;;5.50;99.90;;;;;;4981987;28;20024;-63
2020/12/06 12:55:45;;;;;;;;;;;5.40;99.90;;;;;;4982014;28;20433;-64
2020/12/06 12:58:11;;;;;;;;;;;5.40;99.90;;;;;;4997273;28;19930;-63
2020/12/06 13:00:37;;;;;;;;;;;5.40;99.90;;;;;;4991687;28;19934;-63
2020/12/06 13:03:04;;;;;;;;;;;5.30;99.90;;;;;;4982128;28;20028;-64
2020/12/06 13:05:30;;;;;;;;;;;5.20;99.90;;;;;;4991448;28;19973;-62
2020/12/06 13:07:56;;;;;;;;;;;5.30;99.90;;;;;;4992594;28;19926;-63
2020/12/06 13:10:23;;;;;;;;;;;5.30;99.90;;;;;;4992797;28;20406;-65
2020/12/06 13:12:50;;;;;;;;;;;5.20;99.90;;;;;;4984044;28;20032;-63
2020/12/06 13:15:16;;;;;;;;;;;5.20;99.90;;;;;;4990784;28;19930;-63
2020/12/06 13:17:42;;;;;;;;;;;5.20;99.90;;;;;;4990592;28;19926;-63
2020/12/06 13:20:09;;;;;;;;;;;5.20;99.90;;;;;;4994205;28;19973;-64
2020/12/06 13:22:35;;;;;;;;;;;5.20;99.90;;;;;;4988731;28;20461;-63
2020/12/06 13:25:01;;;;;;;;;;;5.30;99.90;;;;;;4997653;28;19964;-63
2020/12/06 13:27:29;;;;;;;;;;;5.30;99.90;;;;;;4998059;28;19929;-63
2020/12/06 13:29:55;;;;;;;;;;;5.40;99.90;;;;;;4988973;28;19985;-63
2020/12/06 13:32:22;;;;;;;;;;;5.40;99.90;;;;;;4998496;28;19933;-63
2020/12/06 13:34:48;;;;;;;;;;;5.40;99.90;;;;;;4979614;28;20287;-63
2020/12/06 13:37:15;;;;;;;;;;;5.40;99.90;;;;;;4987307;28;20024;-63
2020/12/06 13:39:41;;;;;;;;;;;5.40;99.90;;;;;;4985148;28;20442;-64
2020/12/06 13:42:07;;;;;;;;;;;5.30;99.90;;;;;;4993257;28;19988;-65
2020/12/06 13:44:34;;;;;;;;;;;5.20;99.90;;;;;;4989632;28;19933;-65
2020/12/06 13:47:00;;;;;;;;;;;5.20;99.90;;;;;;4999993;28;19968;-64
2020/12/06 13:49:27;;;;;;;;;;;5.30;99.90;;;;;;4985744;28;19961;-64
2020/12/06 13:51:53;;;;;;;;;;;5.30;99.90;;;;;;4985329;28;20025;-64
2020/12/06 13:54:19;;;;;;;;;;;5.30;99.90;;;;;;4991307;28;20804;-64
2020/12/06 13:56:46;;;;;;;;;;;5.30;99.90;;;;;;4982943;28;20045;-64
2020/12/06 13:59:12;;;;;;;;;;;5.30;99.90;;;;;;4987508;28;20029;-64
2020/12/06 14:01:39;;;;;;;;;;;5.20;99.90;;;;;;4981766;28;20280;-64
2020/12/06 14:04:05;;;;;;;;;;;5.20;99.90;;;;;;4977343;28;19961;-64
2020/12/06 14:06:32;;;;;;;;;;;5.20;99.90;;;;;;4985453;28;20000;-64
2020/12/06 14:08:58;;;;;;;;;;;5.20;99.90;;;;;;4993306;28;19926;-64
2020/12/06 14:11:24;;;;;;;;;;;5.30;99.90;;;;;;4994609;28;19926;-65
2020/12/06 14:13:50;;;;;;;;;;;5.30;99.90;;;;;;4981173;28;19925;-64
2020/12/06 14:16:17;;;;;;;;;;;5.40;99.90;;;;;;4987688;28;20206;-63
2020/12/06 14:18:44;;;;;;;;;;;5.40;99.90;;;;;;4991202;28;19976;-64
2020/12/06 14:21:11;;;;;;;;;;;5.30;99.90;;;;;;4980507;28;19925;-64
2020/12/06 14:23:37;;;;;;;;;;;5.10;99.90;;;;;;4974301;28;19953;-64
2020/12/06 14:26:03;;;;;;;;;;;5.10;99.90;;;;;;4982668;28;19930;-64
2020/12/06 14:28:29;;;;;;;;;;;5.30;99.90;;;;;;4986873;28;19930;-64
2020/12/06 14:30:56;;;;;;;;;;;5.30;99.90;;;;;;4997437;28;19990;-64
2020/12/06 14:33:22;;;;;;;;;;;5.40;99.90;;;;;;4990820;28;19929;-64
2020/12/06 14:35:49;;;;;;;;;;;5.40;99.90;;;;;;4993888;28;19965;-64
2020/12/06 14:38:15;;;;;;;;;;;5.40;99.90;;;;;;4997714;28;19973;-64
2020/12/06 14:40:41;;;;;;;;;;;5.40;99.90;;;;;;4994726;28;20346;-64